Nearby METAR Reports

 

KSJC - San Jose, California, USA
Distance from station: NE 14km
Updated: 2021-01-20 16:53
Few Clouds
Few Clouds
 Wind from NNW
Wind: NNW 13 km/h
Temperature: 17°C
Dew Point: -4°C
Humidity: 24%
Barometer: 1017.6 hPa
Clouds: Few Clouds
Visibility: 16 km
Cloud details: Few Clouds 1829 m
Few Clouds 3962 m
2021/01/21 00:53 KSJC 210053Z 34007KT 10SM FEW060 FEW130 17/M04 A3005 RMK AO2 SLP176 T01721044
KNUQ - Moffett Nas/Mtn, California, USA
Distance from station: N 14km
Updated: 2021-01-20 17:10
Clear
Clear
 Wind from NNW
Wind: NNW 9 km/h
Temperature: 15°C
Dew Point: -3°C
Humidity: 29%
Barometer: 1017.9 hPa
Clouds: Clear
Visibility: 16 km
2021/01/21 01:10 KNUQ 210110Z AUTO 33005KT 10SM CLR 15/M03 A3006 RMK AO2
 
KPAO - Palo Alto, California, USA
Distance from station: NNW 23km
Updated: 2021-01-20 16:47
Clear
Clear
 Wind from NNW
Wind: NNW 9 km/h
Temperature: 15°C
Dew Point: 0°C
Humidity: 36%
Barometer: 1017.9 hPa
Clouds: Clear
Visibility: 16 km
2021/01/21 00:47 KPAO 210047Z 34005KT 10SM SKC 15/00 A3006
KRHV - San Jose/Reid, California, USA
Distance from station: ENE 19km
Updated: 2021-01-20 16:50
Clear
Clear
 Wind from NNW
Wind: NNW 13 km/h
Temperature: 18°C
Dew Point: -3°C
Humidity: 24%
Barometer: 1017.9 hPa
Clouds: Clear
Visibility: 16 km
2021/01/21 00:50 KRHV 210050Z 33007KT 10SM SKC 18/M03 A3006
 
KOAK - Oakland, California, USA
Distance from station: NNW 50km
Updated: 2021-01-20 16:53
Few Clouds
Few Clouds
 Wind from NW
Wind: NW 13 km/h
Temperature: 18°C
Dew Point: -3°C
Humidity: 24%
Barometer: 1018.3 hPa
Clouds: Few Clouds
Visibility: 16 km
Cloud details: Few Clouds 6096 m
2021/01/21 00:53 KOAK 210053Z 31007KT 10SM FEW200 18/M03 A3007 RMK AO2 SLP182 T01831033
KSQL - San Carlos Airpo, California, USA
Distance from station: NW 34km
Updated: 2021-01-20 16:50
Clear
Clear
 Wind from varies
Wind: varies 6 km/h
Temperature: 18°C
Dew Point: -5°C
Humidity: 21%
Barometer: 1018.3 hPa
Clouds: Clear
Visibility: 16 km
2021/01/21 00:50 KSQL 210050Z VRB03KT 10SM SKC 18/M05 A3007
 
KSFO - San Francisco, California, USA
Distance from station: NW 49km
Updated: 2021-01-20 16:56
Few Clouds
Few Clouds
 Wind from W
Wind: W 20 km/h
Temperature: 17°C
Dew Point: -3°C
Humidity: 25%
Barometer: 1017.9 hPa
Clouds: Few Clouds
Visibility: 16 km
Cloud details: Few Clouds 6096 m
2021/01/21 00:56 KSFO 210056Z 28011KT 10SM FEW200 17/M03 A3006 RMK AO2 SLP179 T01721033
KE16 - San Martin, California, USA
Distance from station: ESE 43km
Updated: 2021-01-20 17:15
Clear
Clear
 Wind from NW
Wind: NW 9 km/h
Temperature: 18°C
Dew Point: -7°C
Humidity: 18%
Barometer: 1018.3 hPa
Clouds: Clear
Visibility: 16 km
2021/01/21 01:15 KE16 210115Z AUTO 31005KT 10SM CLR 18/M07 A3007 RMK AO2 PWINO PNO
 
KWVI - Watsonville, California, USA
Distance from station: SSE 44km
Updated: 2021-01-20 16:53
Clear
Clear
 Wind from calm
Wind: Calm
Temperature: 17°C
Dew Point: -2°C
Humidity: 27%
Barometer: 1017.3 hPa
Clouds: Clear
Visibility: 16 km
2021/01/21 00:53 KWVI 210053Z AUTO 00000KT 10SM CLR 17/M02 A3004 RMK AO2 SLP171 T01721017
KHAF - Half Moon Bay, California, USA
Distance from station: WNW 50km
Updated: 2021-01-20 17:15
Clear
Clear
 Wind from NNW
Wind: NNW 17 km/h
Temperature: 15°C
Dew Point: -3°C
Humidity: 29%
Barometer: 1018.3 hPa
Clouds: Clear
Visibility: 11 km
2021/01/21 01:15 KHAF 210115Z AUTO 33009KT 7SM CLR 15/M03 A3007 RMK AO2
 
KHWD - Hayward, California, USA
Distance from station: N 44km
Updated: 2021-01-20 16:54
Clear
Clear
 Wind from WNW
Wind: WNW 9 km/h
Temperature: 16°C
Dew Point: -2°C
Humidity: 29%
Barometer: 1017.6 hPa
Clouds: Clear
Visibility: 16 km
2021/01/21 00:54 KHWD 210054Z 30005KT 10SM CLR 16/M02 A3005 RMK AO2 SLP186 T01611022
KLVK - Livermore, California, USA
Distance from station: NNE 51km
Updated: 2021-01-20 16:53
Clear
Clear
 Wind from ENE
Wind: ENE 13 km/h
Temperature: 17°C
Dew Point: -6°C
Humidity: 20%
Barometer: 1017.9 hPa
Clouds: Clear
Visibility: 16 km
2021/01/21 00:53 KLVK 210053Z 07007KT 10SM CLR 17/M06 A3006 RMK AO2 SLP177 T01671061